sensor_id;sensor_type;location;lat;lon;timestamp;temperature;humidity
10873;DHT22;34586;53.616;10.032;2023-09-18T00:00:23;17.90;99.90
10873;DHT22;34586;53.616;10.032;2023-09-18T00:02:49;17.90;99.90
10873;DHT22;34586;53.616;10.032;2023-09-18T00:05:14;17.90;99.90
10873;DHT22;34586;53.616;10.032;2023-09-18T00:07:42;17.90;99.90
10873;DHT22;34586;53.616;10.032;2023-09-18T00:10:11;17.90;99.90
10873;DHT22;34586;53.616;10.032;2023-09-18T00:12:38;17.90;99.90
10873;DHT22;34586;53.616;10.032;2023-09-18T00:15:04;17.90;99.90
10873;DHT22;34586;53.616;10.032;2023-09-18T00:17:30;17.90;99.90
10873;DHT22;34586;53.616;10.032;2023-09-18T00:19:55;17.90;99.90
10873;DHT22;34586;53.616;10.032;2023-09-18T00:22:21;17.90;99.90
10873;DHT22;34586;53.616;10.032;2023-09-18T00:24:47;17.90;99.90
10873;DHT22;34586;53.616;10.032;2023-09-18T00:27:13;17.90;99.90
10873;DHT22;34586;53.616;10.032;2023-09-18T00:29:39;17.90;99.90
10873;DHT22;34586;53.616;10.032;2023-09-18T00:32:06;17.90;99.90
10873;DHT22;34586;53.616;10.032;2023-09-18T00:34:31;17.90;99.90
10873;DHT22;34586;53.616;10.032;2023-09-18T00:36:58;17.90;99.90
10873;DHT22;34586;53.616;10.032;2023-09-18T00:39:25;17.90;99.90
10873;DHT22;34586;53.616;10.032;2023-09-18T00:41:50;17.80;99.90
10873;DHT22;34586;53.616;10.032;2023-09-18T00:44:22;17.90;99.90
10873;DHT22;34586;53.616;10.032;2023-09-18T00:46:49;17.90;99.90
10873;DHT22;34586;53.616;10.032;2023-09-18T00:49:16;17.90;99.90
10873;DHT22;34586;53.616;10.032;2023-09-18T00:51:44;17.90;99.90
10873;DHT22;34586;53.616;10.032;2023-09-18T00:54:10;17.90;99.90
10873;DHT22;34586;53.616;10.032;2023-09-18T00:56:36;17.80;99.90
10873;DHT22;34586;53.616;10.032;2023-09-18T00:59:02;17.80;99.90
10873;DHT22;34586;53.616;10.032;2023-09-18T01:01:29;17.80;99.90
10873;DHT22;34586;53.616;10.032;2023-09-18T01:03:56;17.80;99.90
10873;DHT22;34586;53.616;10.032;2023-09-18T01:06:25;17.70;99.90
10873;DHT22;34586;53.616;10.032;2023-09-18T01:08:53;17.70;99.90
10873;DHT22;34586;53.616;10.032;2023-09-18T01:17:14;17.60;99.90
10873;DHT22;34586;53.616;10.032;2023-09-18T01:19:43;17.60;99.90
10873;DHT22;34586;53.616;10.032;2023-09-18T01:22:14;17.60;99.90
10873;DHT22;34586;53.616;10.032;2023-09-18T01:24:41;17.60;99.90
10873;DHT22;34586;53.616;10.032;2023-09-18T01:27:14;17.70;99.90
10873;DHT22;34586;53.616;10.032;2023-09-18T01:29:42;17.70;99.90
10873;DHT22;34586;53.616;10.032;2023-09-18T01:32:08;17.70;99.90
10873;DHT22;34586;53.616;10.032;2023-09-18T01:34:36;17.60;99.90
10873;DHT22;34586;53.616;10.032;2023-09-18T01:37:06;17.60;99.90
10873;DHT22;34586;53.616;10.032;2023-09-18T01:39:33;17.60;99.90
10873;DHT22;34586;53.616;10.032;2023-09-18T01:42:01;17.70;99.90
10873;DHT22;34586;53.616;10.032;2023-09-18T01:44:28;17.70;99.90
10873;DHT22;34586;53.616;10.032;2023-09-18T01:46:56;17.70;99.90
10873;DHT22;34586;53.616;10.032;2023-09-18T01:49:27;17.70;99.90
10873;DHT22;34586;53.616;10.032;2023-09-18T01:51:53;17.70;99.90
10873;DHT22;34586;53.616;10.032;2023-09-18T01:54:19;17.60;99.90
10873;DHT22;34586;53.616;10.032;2023-09-18T01:56:44;17.60;99.90
10873;DHT22;34586;53.616;10.032;2023-09-18T01:59:10;17.60;99.90
10873;DHT22;34586;53.616;10.032;2023-09-18T02:01:35;17.60;99.90
10873;DHT22;34586;53.616;10.032;2023-09-18T02:04:04;17.60;99.90
10873;DHT22;34586;53.616;10.032;2023-09-18T02:06:29;17.60;99.90
10873;DHT22;34586;53.616;10.032;2023-09-18T02:08:55;17.60;99.90
10873;DHT22;34586;53.616;10.032;2023-09-18T02:11:21;17.60;99.90
10873;DHT22;34586;53.616;10.032;2023-09-18T02:13:46;17.60;99.90
10873;DHT22;34586;53.616;10.032;2023-09-18T02:16:12;17.60;99.90
10873;DHT22;34586;53.616;10.032;2023-09-18T02:18:38;17.60;99.90
10873;DHT22;34586;53.616;10.032;2023-09-18T02:21:03;17.60;99.90
10873;DHT22;34586;53.616;10.032;2023-09-18T02:23:29;17.60;99.90
10873;DHT22;34586;53.616;10.032;2023-09-18T02:25:58;17.60;99.90
10873;DHT22;34586;53.616;10.032;2023-09-18T02:28:23;17.60;99.90
10873;DHT22;34586;53.616;10.032;2023-09-18T02:30:49;17.60;99.90
10873;DHT22;34586;53.616;10.032;2023-09-18T02:33:15;17.60;99.90
10873;DHT22;34586;53.616;10.032;2023-09-18T02:35:41;17.70;99.90
10873;DHT22;34586;53.616;10.032;2023-09-18T02:38:08;17.60;99.90
10873;DHT22;34586;53.616;10.032;2023-09-18T02:40:34;17.60;99.90
10873;DHT22;34586;53.616;10.032;2023-09-18T02:42:59;17.60;99.90
10873;DHT22;34586;53.616;10.032;2023-09-18T02:45:27;17.60;99.90
10873;DHT22;34586;53.616;10.032;2023-09-18T02:47:53;17.60;99.90
10873;DHT22;34586;53.616;10.032;2023-09-18T02:50:18;17.60;99.90
10873;DHT22;34586;53.616;10.032;2023-09-18T02:52:44;17.50;99.90
10873;DHT22;34586;53.616;10.032;2023-09-18T02:55:10;17.50;99.90
10873;DHT22;34586;53.616;10.032;2023-09-18T02:57:35;17.50;99.90
10873;DHT22;34586;53.616;10.032;2023-09-18T03:00:01;17.40;99.90
10873;DHT22;34586;53.616;10.032;2023-09-18T03:02:28;17.40;99.90
10873;DHT22;34586;53.616;10.032;2023-09-18T03:04:54;17.40;99.90
10873;DHT22;34586;53.616;10.032;2023-09-18T03:07:19;17.40;99.90
10873;DHT22;34586;53.616;10.032;2023-09-18T03:09:45;17.30;99.90
10873;DHT22;34586;53.616;10.032;2023-09-18T03:12:11;17.30;99.90
10873;DHT22;34586;53.616;10.032;2023-09-18T03:14:36;17.20;99.90
10873;DHT22;34586;53.616;10.032;2023-09-18T03:17:02;17.20;99.90
10873;DHT22;34586;53.616;10.032;2023-09-18T03:19:27;17.20;99.90
10873;DHT22;34586;53.616;10.032;2023-09-18T03:21:53;17.20;99.90
10873;DHT22;34586;53.616;10.032;2023-09-18T03:24:18;17.10;99.90
10873;DHT22;34586;53.616;10.032;2023-09-18T03:26:44;17.10;99.90
10873;DHT22;34586;53.616;10.032;2023-09-18T03:29:10;17.10;99.90
10873;DHT22;34586;53.616;10.032;2023-09-18T03:31:36;17.00;99.90
10873;DHT22;34586;53.616;10.032;2023-09-18T03:34:01;17.00;99.90
10873;DHT22;34586;53.616;10.032;2023-09-18T03:36:27;17.00;99.90
10873;DHT22;34586;53.616;10.032;2023-09-18T03:38:53;17.00;99.90
10873;DHT22;34586;53.616;10.032;2023-09-18T03:41:18;17.00;99.90
10873;DHT22;34586;53.616;10.032;2023-09-18T03:43:44;17.00;99.90
10873;DHT22;34586;53.616;10.032;2023-09-18T03:46:09;17.10;99.90
10873;DHT22;34586;53.616;10.032;2023-09-18T03:48:35;17.10;99.90
10873;DHT22;34586;53.616;10.032;2023-09-18T03:51:04;17.10;99.90
10873;DHT22;34586;53.616;10.032;2023-09-18T03:53:32;17.10;99.90
10873;DHT22;34586;53.616;10.032;2023-09-18T03:55:58;17.20;99.90
10873;DHT22;34586;53.616;10.032;2023-09-18T03:58:24;17.20;99.90
10873;DHT22;34586;53.616;10.032;2023-09-18T04:00:50;17.10;99.90
10873;DHT22;34586;53.616;10.032;2023-09-18T04:03:16;17.10;99.90
10873;DHT22;34586;53.616;10.032;2023-09-18T04:05:42;17.20;99.90
10873;DHT22;34586;53.616;10.032;2023-09-18T04:08:08;17.20;99.90
10873;DHT22;34586;53.616;10.032;2023-09-18T04:10:33;17.10;99.90
10873;DHT22;34586;53.616;10.032;2023-09-18T04:13:00;17.10;99.90
10873;DHT22;34586;53.616;10.032;2023-09-18T04:15:25;17.10;99.90
10873;DHT22;34586;53.616;10.032;2023-09-18T04:17:53;17.10;99.90
10873;DHT22;34586;53.616;10.032;2023-09-18T04:20:18;17.10;99.90
10873;DHT22;34586;53.616;10.032;2023-09-18T04:22:46;17.00;99.90
10873;DHT22;34586;53.616;10.032;2023-09-18T04:25:15;17.00;99.90
10873;DHT22;34586;53.616;10.032;2023-09-18T04:27:41;17.00;99.90
10873;DHT22;34586;53.616;10.032;2023-09-18T04:30:08;17.00;99.90
10873;DHT22;34586;53.616;10.032;2023-09-18T04:32:39;16.90;99.90
10873;DHT22;34586;53.616;10.032;2023-09-18T04:35:05;16.90;99.90
10873;DHT22;34586;53.616;10.032;2023-09-18T04:37:36;16.90;99.90
10873;DHT22;34586;53.616;10.032;2023-09-18T04:40:03;16.90;99.90
10873;DHT22;34586;53.616;10.032;2023-09-18T04:42:29;16.80;99.90
10873;DHT22;34586;53.616;10.032;2023-09-18T04:44:55;16.80;99.90
10873;DHT22;34586;53.616;10.032;2023-09-18T04:47:21;16.80;99.90
10873;DHT22;34586;53.616;10.032;2023-09-18T04:49:46;16.80;99.90
10873;DHT22;34586;53.616;10.032;2023-09-18T04:52:13;16.80;99.90
10873;DHT22;34586;53.616;10.032;2023-09-18T04:54:38;16.80;99.90
10873;DHT22;34586;53.616;10.032;2023-09-18T04:57:04;16.80;99.90
10873;DHT22;34586;53.616;10.032;2023-09-18T04:59:30;16.80;99.90
10873;DHT22;34586;53.616;10.032;2023-09-18T05:01:57;16.80;99.90
10873;DHT22;34586;53.616;10.032;2023-09-18T05:04:22;16.80;99.90
10873;DHT22;34586;53.616;10.032;2023-09-18T05:06:48;16.80;99.90
10873;DHT22;34586;53.616;10.032;2023-09-18T05:09:13;16.80;99.90
10873;DHT22;34586;53.616;10.032;2023-09-18T05:11:40;16.90;99.90
10873;DHT22;34586;53.616;10.032;2023-09-18T05:14:07;16.90;99.90
10873;DHT22;34586;53.616;10.032;2023-09-18T05:16:32;16.90;99.90
10873;DHT22;34586;53.616;10.032;2023-09-18T05:18:58;16.90;99.90
10873;DHT22;34586;53.616;10.032;2023-09-18T05:21:24;17.00;99.90
10873;DHT22;34586;53.616;10.032;2023-09-18T05:23:50;17.00;99.90
10873;DHT22;34586;53.616;10.032;2023-09-18T05:26:16;17.00;99.90
10873;DHT22;34586;53.616;10.032;2023-09-18T05:28:42;17.00;99.90
10873;DHT22;34586;53.616;10.032;2023-09-18T05:31:07;17.10;99.90
10873;DHT22;34586;53.616;10.032;2023-09-18T05:33:33;17.10;99.90
10873;DHT22;34586;53.616;10.032;2023-09-18T05:35:58;17.10;99.90
10873;DHT22;34586;53.616;10.032;2023-09-18T05:38:24;17.20;99.90
10873;DHT22;34586;53.616;10.032;2023-09-18T05:40:50;17.20;99.90
10873;DHT22;34586;53.616;10.032;2023-09-18T05:43:15;17.30;99.90
10873;DHT22;34586;53.616;10.032;2023-09-18T05:45:41;17.30;99.90
10873;DHT22;34586;53.616;10.032;2023-09-18T05:48:07;17.30;99.90
10873;DHT22;34586;53.616;10.032;2023-09-18T05:50:34;17.30;99.90
10873;DHT22;34586;53.616;10.032;2023-09-18T05:53:01;17.40;99.90
10873;DHT22;34586;53.616;10.032;2023-09-18T05:55:33;17.40;99.90
10873;DHT22;34586;53.616;10.032;2023-09-18T05:57:58;17.40;99.90
10873;DHT22;34586;53.616;10.032;2023-09-18T06:00:24;17.50;99.90
10873;DHT22;34586;53.616;10.032;2023-09-18T06:02:50;17.50;99.90
10873;DHT22;34586;53.616;10.032;2023-09-18T06:05:17;17.50;99.90
10873;DHT22;34586;53.616;10.032;2023-09-18T06:07:42;17.50;99.90
10873;DHT22;34586;53.616;10.032;2023-09-18T06:10:09;17.60;99.90
10873;DHT22;34586;53.616;10.032;2023-09-18T06:12:38;17.70;99.90
10873;DHT22;34586;53.616;10.032;2023-09-18T06:15:06;17.70;99.90
10873;DHT22;34586;53.616;10.032;2023-09-18T06:17:33;17.70;99.90
10873;DHT22;34586;53.616;10.032;2023-09-18T06:19:59;17.70;99.90
10873;DHT22;34586;53.616;10.032;2023-09-18T06:22:24;17.80;99.90
10873;DHT22;34586;53.616;10.032;2023-09-18T06:24:50;17.90;99.90
10873;DHT22;34586;53.616;10.032;2023-09-18T06:27:15;18.00;99.90
10873;DHT22;34586;53.616;10.032;2023-09-18T06:29:41;18.10;99.90
10873;DHT22;34586;53.616;10.032;2023-09-18T06:32:08;18.10;99.90
10873;DHT22;34586;53.616;10.032;2023-09-18T06:34:34;18.20;99.90
10873;DHT22;34586;53.616;10.032;2023-09-18T06:36:59;18.20;99.90
10873;DHT22;34586;53.616;10.032;2023-09-18T06:39:25;18.20;99.90
10873;DHT22;34586;53.616;10.032;2023-09-18T06:41:51;18.30;99.90
10873;DHT22;34586;53.616;10.032;2023-09-18T06:44:17;18.30;99.90
10873;DHT22;34586;53.616;10.032;2023-09-18T06:46:42;18.40;99.90
10873;DHT22;34586;53.616;10.032;2023-09-18T06:49:08;18.40;99.90
10873;DHT22;34586;53.616;10.032;2023-09-18T06:51:33;18.50;99.90
10873;DHT22;34586;53.616;10.032;2023-09-18T06:53:59;18.50;99.90
10873;DHT22;34586;53.616;10.032;2023-09-18T06:56:28;18.60;99.90
10873;DHT22;34586;53.616;10.032;2023-09-18T06:58:53;18.70;99.90
10873;DHT22;34586;53.616;10.032;2023-09-18T07:01:20;18.70;99.90
10873;DHT22;34586;53.616;10.032;2023-09-18T07:03:47;18.80;99.90
10873;DHT22;34586;53.616;10.032;2023-09-18T07:06:13;18.90;99.90
10873;DHT22;34586;53.616;10.032;2023-09-18T07:08:44;18.90;99.90
10873;DHT22;34586;53.616;10.032;2023-09-18T07:11:10;18.90;99.90
10873;DHT22;34586;53.616;10.032;2023-09-18T07:13:37;19.00;99.90
10873;DHT22;34586;53.616;10.032;2023-09-18T07:16:03;19.20;99.90
10873;DHT22;34586;53.616;10.032;2023-09-18T07:18:29;19.30;99.90
10873;DHT22;34586;53.616;10.032;2023-09-18T07:20:54;19.30;99.90
10873;DHT22;34586;53.616;10.032;2023-09-18T07:23:20;19.40;99.90
10873;DHT22;34586;53.616;10.032;2023-09-18T07:25:48;19.50;99.90
10873;DHT22;34586;53.616;10.032;2023-09-18T07:28:13;19.60;99.90
10873;DHT22;34586;53.616;10.032;2023-09-18T07:30:43;19.80;99.90
10873;DHT22;34586;53.616;10.032;2023-09-18T07:33:12;19.80;99.90
10873;DHT22;34586;53.616;10.032;2023-09-18T07:35:38;19.90;99.90
10873;DHT22;34586;53.616;10.032;2023-09-18T07:38:04;20.00;99.90
10873;DHT22;34586;53.616;10.032;2023-09-18T07:40:30;20.10;99.90
10873;DHT22;34586;53.616;10.032;2023-09-18T07:42:56;20.20;99.90
10873;DHT22;34586;53.616;10.032;2023-09-18T07:45:23;20.30;99.90
10873;DHT22;34586;53.616;10.032;2023-09-18T07:47:49;20.30;99.90
10873;DHT22;34586;53.616;10.032;2023-09-18T07:50:15;20.40;99.90
10873;DHT22;34586;53.616;10.032;2023-09-18T07:52:40;20.40;99.90
10873;DHT22;34586;53.616;10.032;2023-09-18T07:55:06;20.50;99.90
10873;DHT22;34586;53.616;10.032;2023-09-18T07:57:32;20.50;99.90
10873;DHT22;34586;53.616;10.032;2023-09-18T08:00:00;20.70;99.90
10873;DHT22;34586;53.616;10.032;2023-09-18T08:02:32;20.70;99.90
10873;DHT22;34586;53.616;10.032;2023-09-18T08:05:00;20.80;99.90
10873;DHT22;34586;53.616;10.032;2023-09-18T08:07:27;21.00;99.90
10873;DHT22;34586;53.616;10.032;2023-09-18T08:09:53;21.00;99.90
10873;DHT22;34586;53.616;10.032;2023-09-18T08:12:19;21.00;99.90
10873;DHT22;34586;53.616;10.032;2023-09-18T08:14:45;21.00;99.90
10873;DHT22;34586;53.616;10.032;2023-09-18T08:17:10;21.00;99.90
10873;DHT22;34586;53.616;10.032;2023-09-18T08:19:36;21.10;99.90
10873;DHT22;34586;53.616;10.032;2023-09-18T08:22:01;21.10;99.90
10873;DHT22;34586;53.616;10.032;2023-09-18T08:24:29;21.20;99.90
10873;DHT22;34586;53.616;10.032;2023-09-18T08:26:55;21.20;99.90
10873;DHT22;34586;53.616;10.032;2023-09-18T08:29:22;21.30;99.90
10873;DHT22;34586;53.616;10.032;2023-09-18T08:31:47;21.40;99.90
10873;DHT22;34586;53.616;10.032;2023-09-18T08:34:13;21.50;99.90
10873;DHT22;34586;53.616;10.032;2023-09-18T08:36:38;21.40;99.90
10873;DHT22;34586;53.616;10.032;2023-09-18T08:39:04;21.40;99.90
10873;DHT22;34586;53.616;10.032;2023-09-18T08:41:33;21.40;99.90
10873;DHT22;34586;53.616;10.032;2023-09-18T08:44:01;21.40;99.90
10873;DHT22;34586;53.616;10.032;2023-09-18T08:46:29;21.30;91.90
10873;DHT22;34586;53.616;10.032;2023-09-18T08:48:55;21.20;99.90
10873;DHT22;34586;53.616;10.032;2023-09-18T08:51:21;21.20;99.90
10873;DHT22;34586;53.616;10.032;2023-09-18T08:53:48;21.30;99.90
10873;DHT22;34586;53.616;10.032;2023-09-18T08:56:15;21.20;99.90
10873;DHT22;34586;53.616;10.032;2023-09-18T08:58:43;21.10;99.90
10873;DHT22;34586;53.616;10.032;2023-09-18T09:01:10;21.10;99.90
10873;DHT22;34586;53.616;10.032;2023-09-18T09:03:37;21.10;99.90
10873;DHT22;34586;53.616;10.032;2023-09-18T09:06:04;21.20;99.90
10873;DHT22;34586;53.616;10.032;2023-09-18T09:08:30;21.20;99.90
10873;DHT22;34586;53.616;10.032;2023-09-18T09:10:55;21.20;99.90
10873;DHT22;34586;53.616;10.032;2023-09-18T09:13:24;21.30;99.90
10873;DHT22;34586;53.616;10.032;2023-09-18T09:15:53;21.30;99.90
10873;DHT22;34586;53.616;10.032;2023-09-18T09:18:22;21.40;99.90
10873;DHT22;34586;53.616;10.032;2023-09-18T09:20:59;21.30;99.90
10873;DHT22;34586;53.616;10.032;2023-09-18T09:23:28;21.30;99.90
10873;DHT22;34586;53.616;10.032;2023-09-18T09:25:56;21.30;99.90
10873;DHT22;34586;53.616;10.032;2023-09-18T09:28:37;21.40;99.90
10873;DHT22;34586;53.616;10.032;2023-09-18T09:31:02;21.50;99.90
10873;DHT22;34586;53.616;10.032;2023-09-18T09:33:29;21.70;99.90
10873;DHT22;34586;53.616;10.032;2023-09-18T09:35:56;21.90;99.90
10873;DHT22;34586;53.616;10.032;2023-09-18T09:38:28;22.20;90.40
10873;DHT22;34586;53.616;10.032;2023-09-18T09:40:54;22.40;76.50
10873;DHT22;34586;53.616;10.032;2023-09-18T09:43:20;22.40;60.50
10873;DHT22;34586;53.616;10.032;2023-09-18T09:45:46;22.50;17.50
10873;DHT22;34586;53.616;10.032;2023-09-18T09:48:12;22.50;17.30
10873;DHT22;34586;53.616;10.032;2023-09-18T09:50:48;22.60;67.30
10873;DHT22;34586;53.616;10.032;2023-09-18T09:53:14;22.80;1.00
10873;DHT22;34586;53.616;10.032;2023-09-18T09:55:40;22.80;61.60
10873;DHT22;34586;53.616;10.032;2023-09-18T09:58:07;22.80;3.30
10873;DHT22;34586;53.616;10.032;2023-09-18T10:00:54;22.90;24.90
10873;DHT22;34586;53.616;10.032;2023-09-18T10:03:20;23.00;1.00
10873;DHT22;34586;53.616;10.032;2023-09-18T10:05:48;23.10;5.10
10873;DHT22;34586;53.616;10.032;2023-09-18T10:08:23;23.20;1.00
10873;DHT22;34586;53.616;10.032;2023-09-18T10:10:53;23.20;18.50
10873;DHT22;34586;53.616;10.032;2023-09-18T10:13:20;23.20;9.60
10873;DHT22;34586;53.616;10.032;2023-09-18T10:15:49;23.30;1.00
10873;DHT22;34586;53.616;10.032;2023-09-18T10:20:47;23.30;1.00
10873;DHT22;34586;53.616;10.032;2023-09-18T10:23:26;23.30;1.00
10873;DHT22;34586;53.616;10.032;2023-09-18T10:25:59;23.30;1.00
10873;DHT22;34586;53.616;10.032;2023-09-18T10:28:28;23.20;1.00
10873;DHT22;34586;53.616;10.032;2023-09-18T10:30:57;23.20;1.00
10873;DHT22;34586;53.616;10.032;2023-09-18T10:33:24;23.30;4.20
10873;DHT22;34586;53.616;10.032;2023-09-18T10:35:52;23.40;1.00
10873;DHT22;34586;53.616;10.032;2023-09-18T10:38:18;23.50;1.00
10873;DHT22;34586;53.616;10.032;2023-09-18T10:40:46;23.70;1.00
10873;DHT22;34586;53.616;10.032;2023-09-18T10:43:15;23.80;1.00
10873;DHT22;34586;53.616;10.032;2023-09-18T10:45:42;23.90;1.00
10873;DHT22;34586;53.616;10.032;2023-09-18T10:48:09;23.90;1.00
10873;DHT22;34586;53.616;10.032;2023-09-18T10:50:38;23.90;1.00
10873;DHT22;34586;53.616;10.032;2023-09-18T10:53:05;23.90;1.00
10873;DHT22;34586;53.616;10.032;2023-09-18T10:55:31;23.90;1.00
10873;DHT22;34586;53.616;10.032;2023-09-18T10:57:59;24.00;1.00
10873;DHT22;34586;53.616;10.032;2023-09-18T11:00:25;24.00;1.00
10873;DHT22;34586;53.616;10.032;2023-09-18T11:02:53;24.00;1.00
10873;DHT22;34586;53.616;10.032;2023-09-18T11:05:34;24.20;1.00
10873;DHT22;34586;53.616;10.032;2023-09-18T11:11:02;24.30;1.00
10873;DHT22;34586;53.616;10.032;2023-09-18T11:13:36;24.20;1.00
10873;DHT22;34586;53.616;10.032;2023-09-18T11:21:28;24.50;1.00
10873;DHT22;34586;53.616;10.032;2023-09-18T11:24:04;24.40;1.00
10873;DHT22;34586;53.616;10.032;2023-09-18T11:26:32;24.30;1.00
10873;DHT22;34586;53.616;10.032;2023-09-18T11:29:09;24.20;1.00
10873;DHT22;34586;53.616;10.032;2023-09-18T11:34:26;24.20;1.00
10873;DHT22;34586;53.616;10.032;2023-09-18T11:36:57;24.20;1.00
10873;DHT22;34586;53.616;10.032;2023-09-18T11:39:40;24.10;1.00
10873;DHT22;34586;53.616;10.032;2023-09-18T11:42:12;23.90;1.00
10873;DHT22;34586;53.616;10.032;2023-09-18T11:44:41;23.80;1.00
10873;DHT22;34586;53.616;10.032;2023-09-18T11:47:09;23.80;1.00
10873;DHT22;34586;53.616;10.032;2023-09-18T11:49:39;23.90;1.00
10873;DHT22;34586;53.616;10.032;2023-09-18T11:52:07;24.00;1.00
10873;DHT22;34586;53.616;10.032;2023-09-18T11:54:33;24.00;1.00
10873;DHT22;34586;53.616;10.032;2023-09-18T11:57:03;24.00;1.00
10873;DHT22;34586;53.616;10.032;2023-09-18T11:59:41;24.10;1.00
10873;DHT22;34586;53.616;10.032;2023-09-18T12:02:44;24.20;1.00
10873;DHT22;34586;53.616;10.032;2023-09-18T12:05:13;24.20;1.00
10873;DHT22;34586;53.616;10.032;2023-09-18T12:07:40;24.20;1.00
10873;DHT22;34586;53.616;10.032;2023-09-18T12:10:10;24.10;1.00
10873;DHT22;34586;53.616;10.032;2023-09-18T12:12:36;24.00;1.00
10873;DHT22;34586;53.616;10.032;2023-09-18T12:15:02;23.90;1.00
10873;DHT22;34586;53.616;10.032;2023-09-18T12:17:29;23.90;1.00
10873;DHT22;34586;53.616;10.032;2023-09-18T12:19:55;23.80;1.00
10873;DHT22;34586;53.616;10.032;2023-09-18T12:22:28;23.90;1.00
10873;DHT22;34586;53.616;10.032;2023-09-18T12:25:11;24.00;1.00
10873;DHT22;34586;53.616;10.032;2023-09-18T12:27:37;24.10;1.00
10873;DHT22;34586;53.616;10.032;2023-09-18T12:30:04;24.30;1.00
10873;DHT22;34586;53.616;10.032;2023-09-18T12:32:30;24.60;1.00
10873;DHT22;34586;53.616;10.032;2023-09-18T12:34:58;24.80;99.90
10873;DHT22;34586;53.616;10.032;2023-09-18T12:37:24;24.60;99.90
10873;DHT22;34586;53.616;10.032;2023-09-18T12:39:50;24.40;1.00
10873;DHT22;34586;53.616;10.032;2023-09-18T12:42:18;24.40;1.00
10873;DHT22;34586;53.616;10.032;2023-09-18T12:44:47;24.00;1.00
10873;DHT22;34586;53.616;10.032;2023-09-18T12:47:14;24.30;1.00
10873;DHT22;34586;53.616;10.032;2023-09-18T12:49:39;24.20;1.00
10873;DHT22;34586;53.616;10.032;2023-09-18T12:52:05;24.30;1.00
10873;DHT22;34586;53.616;10.032;2023-09-18T12:54:40;24.40;1.00
10873;DHT22;34586;53.616;10.032;2023-09-18T12:57:07;24.60;99.90
10873;DHT22;34586;53.616;10.032;2023-09-18T12:59:34;24.70;99.90
10873;DHT22;34586;53.616;10.032;2023-09-18T13:02:04;24.90;99.90
10873;DHT22;34586;53.616;10.032;2023-09-18T13:04:32;25.00;99.90
10873;DHT22;34586;53.616;10.032;2023-09-18T13:07:09;24.90;99.90
10873;DHT22;34586;53.616;10.032;2023-09-18T13:09:36;24.80;99.90
10873;DHT22;34586;53.616;10.032;2023-09-18T13:12:03;24.80;99.90
10873;DHT22;34586;53.616;10.032;2023-09-18T13:14:29;24.90;1.00
10873;DHT22;34586;53.616;10.032;2023-09-18T13:17:04;24.80;99.90
10873;DHT22;34586;53.616;10.032;2023-09-18T13:19:30;24.70;99.90
10873;DHT22;34586;53.616;10.032;2023-09-18T13:21:55;24.70;99.90
10873;DHT22;34586;53.616;10.032;2023-09-18T13:24:31;24.60;99.90
10873;DHT22;34586;53.616;10.032;2023-09-18T13:26:57;24.60;99.90
10873;DHT22;34586;53.616;10.032;2023-09-18T13:29:24;24.70;99.90
10873;DHT22;34586;53.616;10.032;2023-09-18T13:31:51;24.60;99.90
10873;DHT22;34586;53.616;10.032;2023-09-18T13:34:16;24.30;99.90
10873;DHT22;34586;53.616;10.032;2023-09-18T13:36:46;24.10;1.00
10873;DHT22;34586;53.616;10.032;2023-09-18T13:39:14;24.00;1.00
10873;DHT22;34586;53.616;10.032;2023-09-18T13:41:43;23.90;1.00
10873;DHT22;34586;53.616;10.032;2023-09-18T13:44:09;23.70;1.00
10873;DHT22;34586;53.616;10.032;2023-09-18T13:46:36;23.60;1.00
10873;DHT22;34586;53.616;10.032;2023-09-18T13:49:03;23.60;1.00
10873;DHT22;34586;53.616;10.032;2023-09-18T13:51:33;23.60;1.00
10873;DHT22;34586;53.616;10.032;2023-09-18T13:53:58;23.70;1.00
10873;DHT22;34586;53.616;10.032;2023-09-18T13:56:24;23.70;1.00
10873;DHT22;34586;53.616;10.032;2023-09-18T13:58:56;23.90;1.00
10873;DHT22;34586;53.616;10.032;2023-09-18T14:01:24;23.90;1.00
10873;DHT22;34586;53.616;10.032;2023-09-18T14:03:51;23.80;1.00
10873;DHT22;34586;53.616;10.032;2023-09-18T14:06:16;23.80;1.00
10873;DHT22;34586;53.616;10.032;2023-09-18T14:08:42;23.80;1.00
10873;DHT22;34586;53.616;10.032;2023-09-18T14:11:08;23.70;1.00
10873;DHT22;34586;53.616;10.032;2023-09-18T14:13:33;23.60;1.00
10873;DHT22;34586;53.616;10.032;2023-09-18T14:15:59;23.60;1.00
10873;DHT22;34586;53.616;10.032;2023-09-18T14:18:25;23.50;1.00
10873;DHT22;34586;53.616;10.032;2023-09-18T14:20:50;23.60;1.00
10873;DHT22;34586;53.616;10.032;2023-09-18T14:23:16;23.60;1.00
10873;DHT22;34586;53.616;10.032;2023-09-18T14:25:41;23.60;1.00
10873;DHT22;34586;53.616;10.032;2023-09-18T14:28:07;23.70;1.00
10873;DHT22;34586;53.616;10.032;2023-09-18T14:30:33;23.60;1.00
10873;DHT22;34586;53.616;10.032;2023-09-18T14:32:59;23.70;1.00
10873;DHT22;34586;53.616;10.032;2023-09-18T14:35:26;23.70;1.00
10873;DHT22;34586;53.616;10.032;2023-09-18T14:37:52;23.80;1.00
10873;DHT22;34586;53.616;10.032;2023-09-18T14:40:18;24.00;1.00
10873;DHT22;34586;53.616;10.032;2023-09-18T14:42:46;24.10;1.00
10873;DHT22;34586;53.616;10.032;2023-09-18T14:45:12;24.50;1.00
10873;DHT22;34586;53.616;10.032;2023-09-18T14:47:38;24.50;99.90
10873;DHT22;34586;53.616;10.032;2023-09-18T14:50:05;24.70;1.00
10873;DHT22;34586;53.616;10.032;2023-09-18T14:52:30;24.60;99.90
10873;DHT22;34586;53.616;10.032;2023-09-18T14:54:57;24.60;99.90
10873;DHT22;34586;53.616;10.032;2023-09-18T14:57:23;24.50;99.90
10873;DHT22;34586;53.616;10.032;2023-09-18T14:59:48;24.40;1.00
10873;DHT22;34586;53.616;10.032;2023-09-18T15:02:14;24.20;1.00
10873;DHT22;34586;53.616;10.032;2023-09-18T15:04:40;24.10;1.00
10873;DHT22;34586;53.616;10.032;2023-09-18T15:07:06;24.00;1.00
10873;DHT22;34586;53.616;10.032;2023-09-18T15:09:32;24.00;99.90
10873;DHT22;34586;53.616;10.032;2023-09-18T15:11:57;24.00;99.90
10873;DHT22;34586;53.616;10.032;2023-09-18T15:14:23;23.80;99.90
10873;DHT22;34586;53.616;10.032;2023-09-18T15:16:49;23.70;1.00
10873;DHT22;34586;53.616;10.032;2023-09-18T15:19:15;23.70;1.00
10873;DHT22;34586;53.616;10.032;2023-09-18T15:21:42;23.80;1.00
10873;DHT22;34586;53.616;10.032;2023-09-18T15:24:09;23.90;99.90
10873;DHT22;34586;53.616;10.032;2023-09-18T15:26:34;23.90;99.90
10873;DHT22;34586;53.616;10.032;2023-09-18T15:29:00;24.00;99.90
10873;DHT22;34586;53.616;10.032;2023-09-18T15:31:26;24.00;99.90
10873;DHT22;34586;53.616;10.032;2023-09-18T15:33:52;24.10;99.90
10873;DHT22;34586;53.616;10.032;2023-09-18T15:36:20;24.00;99.90
10873;DHT22;34586;53.616;10.032;2023-09-18T15:38:48;24.00;99.90